Terminal Aerodrome Forecast
Issued by NWS Greer, SC

Home | Current Version | Previous Version | Text Only | Print | Product List | Glossary On
Versions: 1 2 3 4 5 6 7 8 9 10 11 12 13 14 15 16 17 18 19 20 21 22 23 24 25 26 27 28 29 30 31
000
FTUS42 KGSP 302036 AAA
TAFAVL
TAF AMD
KAVL 302036Z 3021/0118 33005KT P6SM VCTS FEW060 BKN120CB
      TEMPO 3021/3023 4SM TSRA OVC035CB
     FM302300 30004KT P6SM SHRA VCTS BKN060CB
     FM010100 28003KT P6SM BKN070
     FM011100 00000KT 6SM BR SCT200
     FM011400 25003KT P6SM SCT180 PROB30 0114/0115 4SM TSRA
      BKN040CB=

USA.gov is the U.S. government's official web portal to all federal, state and local government web resources and services.